createdAt,value
2022-11-28T00:00:46.380Z,23.4
2022-11-28T00:01:48.922Z,23.5
2022-11-28T00:02:51.644Z,23.5
2022-11-28T00:03:54.871Z,23.5
2022-11-28T00:04:58.270Z,23.5
2022-11-28T00:06:01.401Z,23.4
2022-11-28T00:07:04.183Z,23.6
2022-11-28T00:08:06.701Z,23.5
2022-11-28T00:09:08.902Z,23.5
2022-11-28T00:10:11.002Z,23.5
2022-11-28T00:11:13.202Z,23.5
2022-11-28T00:12:15.145Z,24
2022-11-28T00:13:17.366Z,23.4
2022-11-28T00:14:19.901Z,23.6
2022-11-28T00:15:22.111Z,23.5
2022-11-28T00:16:24.137Z,23.7
2022-11-28T00:17:26.754Z,23.6
2022-11-28T00:18:28.980Z,23.9
2022-11-28T00:19:31.146Z,23.8
2022-11-28T00:20:33.758Z,23.8
2022-11-28T00:21:36.241Z,23.4
2022-11-28T00:22:38.298Z,23.8
2022-11-28T00:23:40.526Z,23.4
2022-11-28T00:24:43.199Z,23.7
2022-11-28T00:25:46.460Z,23.6
2022-11-28T00:26:48.406Z,23.8
2022-11-28T00:27:50.619Z,23.8
2022-11-28T00:28:53.091Z,23.5
2022-11-28T00:29:55.294Z,23.8
2022-11-28T00:30:57.773Z,23.6
2022-11-28T00:32:00.026Z,23.4
2022-11-28T00:33:02.532Z,23.9
2022-11-28T00:34:05.047Z,23.5
2022-11-28T00:35:11.615Z,23.8
2022-11-28T00:36:14.376Z,24.1
2022-11-28T00:37:16.859Z,23.5
2022-11-28T00:38:19.455Z,24.3
2022-11-28T00:39:21.924Z,23.6
2022-11-28T00:40:24.111Z,23.5
2022-11-28T00:41:26.716Z,23.5
2022-11-28T00:42:28.917Z,23.9
2022-11-28T00:43:31.126Z,23.7
2022-11-28T00:44:33.464Z,23.5
2022-11-28T00:45:35.713Z,23.7
2022-11-28T00:46:38.308Z,24.4
2022-11-28T00:47:40.792Z,23.9
2022-11-28T00:48:43.268Z,23.6
2022-11-28T00:49:45.196Z,23.7
2022-11-28T00:50:47.516Z,24.3
2022-11-28T00:51:50.229Z,23.9
2022-11-28T00:52:52.407Z,23.7
2022-11-28T00:53:54.741Z,24.1
2022-11-28T00:54:57.227Z,24.2
2022-11-28T00:55:59.469Z,23.9
2022-11-28T00:57:02.072Z,23.5
2022-11-28T00:58:04.023Z,24.1
2022-11-28T00:59:06.238Z,23.9
2022-11-28T01:00:08.144Z,23.4
2022-11-28T01:01:10.660Z,23.7
2022-11-28T01:02:13.123Z,24.2
2022-11-28T01:03:15.804Z,23.9
2022-11-28T01:04:18.282Z,23.4
2022-11-28T01:05:20.749Z,23.6
2022-11-28T01:06:23.348Z,23.6
2022-11-28T01:07:26.108Z,24.1
2022-11-28T01:08:29.168Z,24.2
2022-11-28T01:09:31.769Z,23.6
2022-11-28T01:10:33.978Z,23.7
2022-11-28T01:11:36.192Z,24.2
2022-11-28T01:12:38.497Z,24
2022-11-28T01:13:40.787Z,24.4
2022-11-28T01:14:42.894Z,24.1
2022-11-28T01:15:45.793Z,24.2
2022-11-28T01:16:47.709Z,23.4
2022-11-28T01:17:50.748Z,24
2022-11-28T01:18:53.230Z,24.3
2022-11-28T01:19:55.413Z,23.5
2022-11-28T01:20:57.340Z,24
2022-11-28T01:21:59.940Z,24.1
2022-11-28T01:23:02.106Z,24.5
2022-11-28T01:24:04.014Z,23.8
2022-11-28T01:25:06.615Z,24.2
2022-11-28T01:26:08.795Z,24.1
2022-11-28T01:27:11.004Z,24.1
2022-11-28T01:28:13.354Z,23.6
2022-11-28T01:29:15.559Z,24.3
2022-11-28T01:30:17.763Z,23.7
2022-11-28T01:31:20.302Z,24.5
2022-11-28T01:32:23.211Z,24.2
2022-11-28T01:33:25.700Z,23.9
2022-11-28T01:34:27.905Z,24.2
2022-11-28T01:35:30.402Z,24
2022-11-28T01:36:32.592Z,23.6
2022-11-28T01:37:35.188Z,23.8
2022-11-28T01:38:37.881Z,24.1
2022-11-28T01:39:39.783Z,24.1
2022-11-28T01:40:42.097Z,23.8
2022-11-28T01:41:44.577Z,24.1
2022-11-28T01:42:47.095Z,23.9
2022-11-28T01:43:49.405Z,24.1
2022-11-28T01:44:51.601Z,23.4
2022-11-28T01:45:53.786Z,23.7
2022-11-28T01:46:56.033Z,23.9
2022-11-28T01:47:58.994Z,23.8
2022-11-28T01:49:01.216Z,23.7
2022-11-28T01:50:03.416Z,23.7
2022-11-28T01:51:05.905Z,24.1
2022-11-28T01:52:08.257Z,23.9
2022-11-28T01:53:10.876Z,23.7
2022-11-28T01:54:13.333Z,24.3
2022-11-28T01:55:15.527Z,23.7
2022-11-28T01:56:17.559Z,23.9
2022-11-28T01:57:20.042Z,24
2022-11-28T01:58:22.532Z,24.3
2022-11-28T01:59:25.122Z,23.8
2022-11-28T02:00:27.321Z,24
2022-11-28T02:01:29.854Z,24.3
2022-11-28T02:02:32.715Z,24
2022-11-28T02:03:35.662Z,23.6
2022-11-28T02:04:37.570Z,24.2
2022-11-28T02:05:39.852Z,24
2022-11-28T02:06:42.345Z,23.9
2022-11-28T02:07:44.648Z,23.9
2022-11-28T02:08:47.601Z,23.7
2022-11-28T02:09:50.335Z,23.7
2022-11-28T02:10:52.507Z,24.1
2022-11-28T02:11:55.112Z,23.6
2022-11-28T02:12:57.617Z,23.8
2022-11-28T02:13:59.873Z,23.6
2022-11-28T02:15:02.189Z,23.6
2022-11-28T02:16:04.712Z,23.4
2022-11-28T02:17:07.170Z,24.1
2022-11-28T02:18:09.378Z,23.6
2022-11-28T02:19:11.556Z,23.8
2022-11-28T02:20:14.037Z,24
2022-11-28T02:21:16.281Z,23.4
2022-11-28T02:22:18.504Z,24.1
2022-11-28T02:23:20.722Z,23.8
2022-11-28T02:24:23.037Z,23.5
2022-11-28T02:25:25.479Z,24.2
2022-11-28T02:26:27.964Z,23.9
2022-11-28T02:27:30.554Z,24.1
2022-11-28T02:28:33.027Z,23.9
2022-11-28T02:29:35.504Z,23.6
2022-11-28T02:30:37.627Z,24
2022-11-28T02:31:40.142Z,23.7
2022-11-28T02:32:42.803Z,23.6
2022-11-28T02:33:44.728Z,23.9
2022-11-28T02:34:47.413Z,23.3
2022-11-28T02:35:51.426Z,23.8
2022-11-28T02:36:53.896Z,23.9
2022-11-28T02:37:56.113Z,23.5
2022-11-28T02:38:58.335Z,23.2
2022-11-28T02:40:00.936Z,23.9
2022-11-28T02:41:03.394Z,23.7
2022-11-28T02:42:05.872Z,23.1
2022-11-28T02:43:08.472Z,23.8
2022-11-28T02:44:10.939Z,23.8
2022-11-28T02:45:13.142Z,23.3
2022-11-28T02:46:15.838Z,23.5
2022-11-28T02:47:18.475Z,23.2
2022-11-28T02:48:20.670Z,23.4
2022-11-28T02:49:23.152Z,23.8
2022-11-28T02:50:25.634Z,23.8
2022-11-28T02:51:27.828Z,24
2022-11-28T02:52:30.032Z,23.8
2022-11-28T02:53:32.505Z,23.9
2022-11-28T02:54:34.998Z,23.4
2022-11-28T02:55:37.323Z,23.7
2022-11-28T02:56:40.028Z,23.2
2022-11-28T02:57:42.510Z,23.4
2022-11-28T02:58:44.830Z,23.8
2022-11-28T02:59:47.015Z,23.2
2022-11-28T03:00:49.264Z,23.2
2022-11-28T03:01:52.313Z,24
2022-11-28T03:02:55.125Z,23.6
2022-11-28T03:03:57.305Z,23.3
2022-11-28T03:04:59.531Z,23.9
2022-11-28T03:06:02.013Z,23.6
2022-11-28T03:07:04.495Z,23.6
2022-11-28T03:08:06.968Z,24
2022-11-28T03:09:09.458Z,23.6
2022-11-28T03:10:11.953Z,23.9
2022-11-28T03:11:14.537Z,23.7
2022-11-28T03:12:17.245Z,23.8
2022-11-28T03:13:19.755Z,23.5
2022-11-28T03:14:21.811Z,23.9
2022-11-28T03:15:23.997Z,23.6
2022-11-28T03:16:26.564Z,23.8
2022-11-28T03:17:28.961Z,24
2022-11-28T03:18:31.161Z,23.7
2022-11-28T03:19:33.351Z,23.7
2022-11-28T03:20:35.837Z,23.4
2022-11-28T03:21:37.782Z,23.6
2022-11-28T03:22:39.993Z,23.6
2022-11-28T03:23:41.921Z,23.4
2022-11-28T03:24:44.338Z,23.5
2022-11-28T03:25:47.032Z,23.4
2022-11-28T03:26:49.649Z,23.6
2022-11-28T03:27:52.362Z,23.8
2022-11-28T03:28:54.850Z,23.7
2022-11-28T03:29:57.170Z,23.7
2022-11-28T03:30:59.642Z,23.4
2022-11-28T03:32:02.191Z,23.8
2022-11-28T03:33:04.525Z,24.1
2022-11-28T03:34:07.034Z,23.7
2022-11-28T03:35:09.241Z,23.6
2022-11-28T03:36:11.460Z,23.6
2022-11-28T03:37:13.948Z,23.4
2022-11-28T03:38:16.148Z,23.8
2022-11-28T03:39:18.647Z,23.3
2022-11-28T03:40:21.120Z,23.7
2022-11-28T03:41:23.614Z,23.6
2022-11-28T03:42:25.933Z,23.4
2022-11-28T03:43:28.631Z,23.7
2022-11-28T03:44:30.848Z,23.8
2022-11-28T03:45:33.456Z,23.4
2022-11-28T03:46:35.994Z,23.6
2022-11-28T03:47:38.557Z,23.7
2022-11-28T03:48:41.173Z,23.3
2022-11-28T03:49:43.654Z,23.4
2022-11-28T03:50:45.875Z,23.4
2022-11-28T03:51:48.355Z,23.5
2022-11-28T03:52:50.553Z,23.8
2022-11-28T03:53:52.760Z,23.8
2022-11-28T03:54:55.228Z,23.7
2022-11-28T03:55:57.770Z,23.7
2022-11-28T03:57:00.602Z,23.5
2022-11-28T03:58:03.198Z,23.7
2022-11-28T03:59:05.915Z,23.5
2022-11-28T04:00:08.386Z,23.6
2022-11-28T04:01:11.009Z,23.6
2022-11-28T04:02:13.965Z,23.5
2022-11-28T04:03:16.470Z,23.5
2022-11-28T04:04:19.610Z,23.8
2022-11-28T04:05:22.094Z,23.7
2022-11-28T04:06:24.588Z,23.8
2022-11-28T04:07:26.590Z,23.5
2022-11-28T04:08:29.643Z,23.6
2022-11-28T04:09:32.194Z,23.2
2022-11-28T04:10:34.719Z,23.6
2022-11-28T04:11:37.204Z,23.7
2022-11-28T04:12:39.785Z,23.4
2022-11-28T04:13:42.382Z,23.4
2022-11-28T04:14:45.208Z,23.1
2022-11-28T04:15:47.747Z,23.6
2022-11-28T04:16:53.687Z,23.4
2022-11-28T04:17:55.207Z,23.2
2022-11-28T04:18:57.698Z,23.4
2022-11-28T04:20:00.296Z,23.4
2022-11-28T04:21:02.781Z,23.5
2022-11-28T04:22:04.983Z,23.6
2022-11-28T04:23:07.475Z,23.5
2022-11-28T04:24:09.668Z,23.7
2022-11-28T04:25:12.145Z,23.5
2022-11-28T04:26:14.638Z,23.7
2022-11-28T04:27:16.836Z,23.5
2022-11-28T04:28:18.772Z,23.5
2022-11-28T04:29:21.355Z,23.6
2022-11-28T04:30:23.788Z,23.3
2022-11-28T04:31:26.295Z,23.1
2022-11-28T04:32:29.433Z,23.6
2022-11-28T04:33:31.626Z,23.4
2022-11-28T04:34:33.814Z,23.6
2022-11-28T04:35:36.421Z,23.6
2022-11-28T04:36:38.355Z,23.5
2022-11-28T04:37:40.736Z,23.7
2022-11-28T04:38:43.267Z,23.3
2022-11-28T04:39:45.936Z,23.3
2022-11-28T04:40:48.469Z,23.5
2022-11-28T04:41:50.702Z,23.4
2022-11-28T04:42:53.300Z,23.3
2022-11-28T04:43:55.839Z,23.4
2022-11-28T04:44:58.473Z,23.4
2022-11-28T04:46:01.258Z,23.6
2022-11-28T04:47:03.774Z,23.4
2022-11-28T04:48:06.426Z,23.5
2022-11-28T04:49:08.926Z,23.3
2022-11-28T04:50:10.877Z,23.5
2022-11-28T04:51:13.487Z,23.4
2022-11-28T04:52:15.688Z,23.6
2022-11-28T04:53:17.630Z,23.4
2022-11-28T04:54:20.111Z,23.6
2022-11-28T04:55:22.320Z,23.6
2022-11-28T04:56:24.801Z,23.5
2022-11-28T04:57:27.282Z,23.5
2022-11-28T04:58:29.451Z,23.7
2022-11-28T04:59:31.931Z,23.5
2022-11-28T05:00:34.271Z,23.4
2022-11-28T05:01:37.019Z,23.5
2022-11-28T05:02:39.529Z,23.6
2022-11-28T05:03:42.872Z,23.4
2022-11-28T05:04:45.545Z,23.4
2022-11-28T05:05:48.057Z,23.5
2022-11-28T05:06:50.366Z,23.3
2022-11-28T05:07:52.968Z,23.5
2022-11-28T05:08:55.805Z,23.5
2022-11-28T05:09:58.287Z,23.3
2022-11-28T05:11:00.775Z,23.4
2022-11-28T05:12:02.999Z,23.5
2022-11-28T05:13:05.491Z,23.6
2022-11-28T05:14:07.969Z,23.3
2022-11-28T05:15:10.452Z,23.2
2022-11-28T05:16:13.102Z,23.5
2022-11-28T05:17:15.794Z,23.4
2022-11-28T05:18:17.742Z,23.1
2022-11-28T05:19:20.336Z,23.4
2022-11-28T05:20:22.835Z,23.4
2022-11-28T05:21:25.313Z,23.5
2022-11-28T05:22:27.630Z,23.4
2022-11-28T05:23:29.835Z,23.3
2022-11-28T05:24:32.568Z,23.6
2022-11-28T05:25:35.065Z,23.5
2022-11-28T05:26:37.538Z,23.3
2022-11-28T05:27:40.010Z,23.3
2022-11-28T05:28:42.480Z,23.6
2022-11-28T05:29:49.504Z,23.4
2022-11-28T05:30:49.940Z,23.4
2022-11-28T05:31:52.322Z,23.8
2022-11-28T05:32:55.565Z,23.4
2022-11-28T05:33:58.081Z,23.3
2022-11-28T05:35:00.678Z,23.3
2022-11-28T05:36:02.876Z,23.4
2022-11-28T05:37:08.353Z,23.4
2022-11-28T05:38:13.634Z,23.5
2022-11-28T05:39:15.920Z,23.1
2022-11-28T05:40:18.119Z,23.3
2022-11-28T05:41:20.322Z,23.6
2022-11-28T05:42:21.977Z,23.3
2022-11-28T05:43:24.252Z,23.4
2022-11-28T05:44:27.106Z,23.4
2022-11-28T05:45:29.842Z,23.2
2022-11-28T05:46:32.594Z,23.4
2022-11-28T05:47:35.206Z,23.3
2022-11-28T05:48:37.359Z,23.4
2022-11-28T05:49:39.669Z,23.3
2022-11-28T05:50:43.282Z,23.4
2022-11-28T05:51:45.478Z,23.3
2022-11-28T05:52:47.945Z,23.3
2022-11-28T05:53:50.263Z,23.3
2022-11-28T05:54:52.732Z,23.3
2022-11-28T05:55:54.932Z,23.4
2022-11-28T05:56:56.873Z,23.1
2022-11-28T05:57:59.095Z,23.2
2022-11-28T05:59:01.587Z,23.5
2022-11-28T06:00:03.518Z,23.2
2022-11-28T06:01:06.004Z,23.3
2022-11-28T06:02:08.519Z,23.4
2022-11-28T06:03:11.320Z,23.4
2022-11-28T06:04:14.047Z,23.5
2022-11-28T06:05:40.746Z,23.2
2022-11-28T06:06:21.833Z,23.2
2022-11-28T06:07:24.416Z,23.3
2022-11-28T06:08:27.043Z,23.3
2022-11-28T06:09:29.645Z,23.3
2022-11-28T06:10:32.118Z,23.3
2022-11-28T06:11:34.324Z,23.2
2022-11-28T06:12:36.800Z,23.4
2022-11-28T06:13:39.018Z,23.3
2022-11-28T06:14:41.496Z,23.4
2022-11-28T06:15:43.963Z,23.4
2022-11-28T06:16:46.292Z,23.5
2022-11-28T06:17:48.789Z,23.3
2022-11-28T06:18:51.383Z,23.3
2022-11-28T06:19:54.790Z,23.2
2022-11-28T06:20:57.270Z,23.3
2022-11-28T06:21:59.867Z,23.3
2022-11-28T06:23:02.352Z,23.4
2022-11-28T06:24:04.858Z,23.3
2022-11-28T06:25:07.470Z,23.2
2022-11-28T06:26:09.983Z,23.2
2022-11-28T06:27:12.479Z,23.3
2022-11-28T06:28:14.139Z,23.2
2022-11-28T06:29:16.373Z,23.3
2022-11-28T06:30:18.299Z,23.4
2022-11-28T06:31:20.815Z,23.3
2022-11-28T06:32:23.191Z,23.3
2022-11-28T06:33:25.147Z,23.4
2022-11-28T06:34:27.761Z,23.3
2022-11-28T06:35:30.215Z,23.3
2022-11-28T06:36:32.440Z,23.2
2022-11-28T06:37:34.770Z,23.4
2022-11-28T06:38:37.245Z,23.5
2022-11-28T06:39:39.943Z,23.2
2022-11-28T06:40:43.847Z,23.3
2022-11-28T06:41:46.327Z,23.3
2022-11-28T06:42:48.524Z,23.4
2022-11-28T06:43:50.755Z,23.3
2022-11-28T06:44:52.942Z,23.2
2022-11-28T06:45:55.457Z,23.5
2022-11-28T06:46:58.299Z,23.2
2022-11-28T06:48:00.775Z,23.2
2022-11-28T06:49:02.685Z,23.3
2022-11-28T06:50:05.295Z,23.5
2022-11-28T06:51:08.085Z,23.4
2022-11-28T06:52:10.055Z,23.4
2022-11-28T06:53:12.657Z,23.4
2022-11-28T06:54:14.853Z,23.4
2022-11-28T06:55:17.455Z,23.3
2022-11-28T06:56:19.795Z,23.6
2022-11-28T06:57:22.004Z,23.3
2022-11-28T06:58:24.204Z,23.5
2022-11-28T06:59:26.690Z,23.5
2022-11-28T07:00:29.337Z,23.2
2022-11-28T07:01:31.854Z,23.3
2022-11-28T07:02:34.859Z,23.4
2022-11-28T07:03:37.807Z,23.4
2022-11-28T07:04:40.283Z,23.4
2022-11-28T07:05:42.875Z,23.2
2022-11-28T07:06:45.595Z,23.4
2022-11-28T07:07:54.032Z,23.3
2022-11-28T07:08:53.202Z,23.3
2022-11-28T07:09:55.395Z,23
2022-11-28T07:10:57.896Z,23.3
2022-11-28T07:12:00.232Z,23.5
2022-11-28T07:13:05.305Z,23.4
2022-11-28T07:14:07.433Z,23.4
2022-11-28T07:15:09.913Z,23.5
2022-11-28T07:16:12.482Z,23.3
2022-11-28T07:17:15.041Z,23.2
2022-11-28T07:18:17.019Z,23.4
2022-11-28T07:19:19.231Z,23.3
2022-11-28T07:20:21.703Z,23.3
2022-11-28T07:21:24.321Z,23.5
2022-11-28T07:22:27.070Z,23.3
2022-11-28T07:23:29.546Z,23.3
2022-11-28T07:24:31.889Z,23.1
2022-11-28T07:25:34.100Z,23.2
2022-11-28T07:26:36.325Z,23.2
2022-11-28T07:27:39.181Z,23.3
2022-11-28T07:28:41.400Z,23.4
2022-11-28T07:29:44.118Z,23.3
2022-11-28T07:30:46.710Z,23.3
2022-11-28T07:31:49.022Z,23.5
2022-11-28T07:32:51.847Z,23.5
2022-11-28T07:33:54.047Z,23.3
2022-11-28T07:34:56.568Z,23
2022-11-28T07:35:59.070Z,23.5
2022-11-28T07:37:01.657Z,23.3
2022-11-28T07:38:04.007Z,23.5
2022-11-28T07:39:06.500Z,23.2
2022-11-28T07:40:09.104Z,23.1
2022-11-28T07:41:11.365Z,23.2
2022-11-28T07:42:13.600Z,23.4
2022-11-28T07:43:16.729Z,23.5
2022-11-28T07:44:19.222Z,23.4
2022-11-28T07:45:22.966Z,23.3
2022-11-28T07:46:28.656Z,23.4
2022-11-28T07:47:31.061Z,23.3
2022-11-28T07:48:33.576Z,23.1
2022-11-28T07:49:36.080Z,23.2
2022-11-28T07:50:38.309Z,23.3
2022-11-28T07:51:40.538Z,23.6
2022-11-28T07:52:42.773Z,23.4
2022-11-28T07:53:44.760Z,23.1
2022-11-28T07:54:47.240Z,23.2
2022-11-28T07:55:49.499Z,23.2
2022-11-28T07:57:20.848Z,23.4
2022-11-28T07:57:56.719Z,23.2
2022-11-28T07:59:03.117Z,23.2
2022-11-28T08:00:04.218Z,23.4
2022-11-28T08:01:06.717Z,23.3
2022-11-28T08:02:09.038Z,23.5
2022-11-28T08:03:11.573Z,23.3
2022-11-28T08:04:14.113Z,23.2
2022-11-28T08:05:17.032Z,23.2
2022-11-28T08:06:18.705Z,23.4
2022-11-28T08:07:20.948Z,23.4
2022-11-28T08:08:23.904Z,23.2
2022-11-28T08:09:26.430Z,23.4
2022-11-28T08:10:28.941Z,23.5
2022-11-28T08:11:31.439Z,23.2
2022-11-28T08:12:33.936Z,23.2
2022-11-28T08:13:35.573Z,23.2
2022-11-28T08:14:38.089Z,23.3
2022-11-28T08:15:41.195Z,23.2
2022-11-28T08:16:43.421Z,23.3
2022-11-28T08:17:46.013Z,23.4
2022-11-28T08:18:48.512Z,23.5
2022-11-28T08:19:50.725Z,23.2
2022-11-28T08:20:53.214Z,23.1
2022-11-28T08:21:55.137Z,23.4
2022-11-28T08:22:57.618Z,23.4
2022-11-28T08:23:59.846Z,23.3
2022-11-28T08:25:02.070Z,23.2
2022-11-28T08:26:04.073Z,23.4
2022-11-28T08:27:06.593Z,23.2
2022-11-28T08:28:08.780Z,23.4
2022-11-28T08:29:10.987Z,23.4
2022-11-28T08:30:13.231Z,23.2
2022-11-28T08:31:15.756Z,23.3
2022-11-28T08:32:18.204Z,23.2
2022-11-28T08:33:20.731Z,23.2
2022-11-28T08:34:23.213Z,23.3
2022-11-28T08:35:25.713Z,23.4
2022-11-28T08:36:29.425Z,23.4
2022-11-28T08:37:32.116Z,23.2
2022-11-28T08:38:34.607Z,23.1
2022-11-28T08:39:37.121Z,23.2
2022-11-28T08:40:39.639Z,23.5
2022-11-28T08:41:42.132Z,23.5
2022-11-28T08:42:44.366Z,23.3
2022-11-28T08:43:46.570Z,23.4
2022-11-28T08:44:48.553Z,23.3
2022-11-28T08:45:50.582Z,23.3
2022-11-28T08:46:53.401Z,23.3
2022-11-28T08:47:55.631Z,23.4
2022-11-28T08:48:57.844Z,23.2
2022-11-28T08:50:00.054Z,23.1
2022-11-28T08:51:02.544Z,23.3
2022-11-28T08:52:04.770Z,23.2
2022-11-28T08:53:07.979Z,23.3
2022-11-28T08:54:10.309Z,23.3
2022-11-28T08:55:12.580Z,23.3
2022-11-28T08:56:15.222Z,23.4
2022-11-28T08:57:17.184Z,23.4
2022-11-28T08:58:19.441Z,23.2
2022-11-28T08:59:21.968Z,23.1
2022-11-28T09:00:24.248Z,23.2
2022-11-28T09:01:26.526Z,23.2
2022-11-28T09:02:29.504Z,23.2
2022-11-28T09:03:32.054Z,23.2
2022-11-28T09:04:34.786Z,23.1
2022-11-28T09:05:36.995Z,23.4
2022-11-28T09:06:39.497Z,23.1
2022-11-28T09:07:42.073Z,23.4
2022-11-28T09:08:45.028Z,23.2
2022-11-28T09:09:47.936Z,23.4
2022-11-28T09:10:51.097Z,23.3
2022-11-28T09:11:53.645Z,23.2
2022-11-28T09:12:55.884Z,23.1
2022-11-28T09:13:57.846Z,23.3
2022-11-28T09:14:59.477Z,23.1
2022-11-28T09:16:01.692Z,23.2
2022-11-28T09:17:03.698Z,23.3
2022-11-28T09:18:05.705Z,23.4
2022-11-28T09:19:08.005Z,23.1
2022-11-28T09:20:10.423Z,23.5
2022-11-28T09:21:12.934Z,23.3
2022-11-28T09:22:15.442Z,23.2
2022-11-28T09:23:17.928Z,23.3
2022-11-28T09:24:20.193Z,23.1
2022-11-28T09:25:22.446Z,23.3
2022-11-28T09:26:24.420Z,23.2
2022-11-28T09:27:26.936Z,23.2
2022-11-28T09:28:29.419Z,23.3
2022-11-28T09:29:31.655Z,23.2
2022-11-28T09:30:34.198Z,23.3
2022-11-28T09:31:36.780Z,23.2
2022-11-28T09:32:43.258Z,23.3
2022-11-28T09:33:45.479Z,23.3
2022-11-28T09:34:47.685Z,23.3
2022-11-28T09:35:50.180Z,23.3
2022-11-28T09:36:52.120Z,23
2022-11-28T09:37:54.617Z,23.2
2022-11-28T09:38:57.109Z,23.1
2022-11-28T09:40:12.475Z,23.2
2022-11-28T09:41:04.020Z,23.2
2022-11-28T09:42:06.545Z,23.4
2022-11-28T09:43:09.093Z,23.3
2022-11-28T09:44:11.584Z,23.1
2022-11-28T09:45:13.797Z,23.2
2022-11-28T09:46:16.321Z,23.1
2022-11-28T09:47:19.138Z,23.2
2022-11-28T09:48:21.644Z,23.2
2022-11-28T09:49:23.859Z,23.2
2022-11-28T09:50:26.059Z,23.5
2022-11-28T09:51:28.085Z,23.3
2022-11-28T09:52:30.699Z,23.1
2022-11-28T09:53:33.581Z,23.1
2022-11-28T09:54:36.059Z,23.3
2022-11-28T09:55:38.272Z,23.2
2022-11-28T09:56:40.491Z,23.3
2022-11-28T09:57:42.751Z,23.4
2022-11-28T09:58:44.725Z,23.4
2022-11-28T09:59:47.219Z,23.4
2022-11-28T10:00:52.706Z,23.2
2022-11-28T10:01:53.575Z,23.3
2022-11-28T10:02:55.542Z,23.3
2022-11-28T10:03:57.933Z,23.3
2022-11-28T10:05:01.076Z,23.3
2022-11-28T10:06:03.994Z,23.2
2022-11-28T10:07:05.931Z,23.3
2022-11-28T10:08:08.179Z,23.3
2022-11-28T10:09:10.686Z,23.2
2022-11-28T10:10:13.172Z,23.3
2022-11-28T10:11:15.110Z,23.1
2022-11-28T10:12:17.330Z,23.4
2022-11-28T10:13:19.577Z,23.2
2022-11-28T10:14:22.100Z,23.4
2022-11-28T10:15:24.584Z,23.3
2022-11-28T10:16:27.181Z,23.2
2022-11-28T10:17:29.390Z,23.2
2022-11-28T10:18:31.612Z,23
2022-11-28T10:19:55.074Z,23.5
2022-11-28T10:20:38.807Z,23.4
2022-11-28T10:21:40.759Z,23.5
2022-11-28T10:22:42.981Z,23.3
2022-11-28T10:23:45.469Z,23.4
2022-11-28T10:24:47.673Z,23.4
2022-11-28T10:25:50.154Z,23.4
2022-11-28T10:26:52.362Z,23.4
2022-11-28T10:27:54.562Z,23.3
2022-11-28T10:28:56.511Z,23.2
2022-11-28T10:29:59.191Z,23.3
2022-11-28T10:31:01.186Z,23.2
2022-11-28T10:32:03.826Z,23.2
2022-11-28T10:33:06.321Z,23.2
2022-11-28T10:34:08.552Z,23.3
2022-11-28T10:35:10.833Z,23.6
2022-11-28T10:36:13.012Z,23.5
2022-11-28T10:37:15.547Z,23.3
2022-11-28T10:38:18.028Z,23.3
2022-11-28T10:39:20.241Z,23.2
2022-11-28T10:40:22.442Z,23.4
2022-11-28T10:41:24.668Z,23.5
2022-11-28T10:42:26.983Z,23.3
2022-11-28T10:43:29.207Z,23.3
2022-11-28T10:44:31.602Z,23.4
2022-11-28T10:45:34.139Z,23.3
2022-11-28T10:46:36.449Z,23.4
2022-11-28T10:47:39.336Z,23.2
2022-11-28T10:48:41.852Z,23.4
2022-11-28T10:49:44.640Z,23.3
2022-11-28T10:50:47.603Z,23.3
2022-11-28T10:51:50.117Z,23.4
2022-11-28T10:52:52.326Z,23.2
2022-11-28T10:53:54.563Z,23.3
2022-11-28T10:54:57.056Z,23.3
2022-11-28T10:55:59.537Z,23.2
2022-11-28T10:57:02.022Z,23.3
2022-11-28T10:58:03.701Z,23.3
2022-11-28T10:59:06.183Z,23.4
2022-11-28T11:00:08.744Z,23.2
2022-11-28T11:01:11.417Z,23.5
2022-11-28T11:02:14.367Z,23.4
2022-11-28T11:03:16.892Z,23.2
2022-11-28T11:04:19.436Z,23.3
2022-11-28T11:05:22.411Z,23.4
2022-11-28T11:06:25.442Z,23.3
2022-11-28T11:07:31.173Z,23.2
2022-11-28T11:08:34.142Z,23.2
2022-11-28T11:09:36.372Z,23.3
2022-11-28T11:10:38.897Z,23.3
2022-11-28T11:11:41.379Z,23.4
2022-11-28T11:12:43.565Z,23.1
2022-11-28T11:13:46.048Z,23.3
2022-11-28T11:14:47.983Z,23.3
2022-11-28T11:15:50.266Z,23.4
2022-11-28T11:16:52.890Z,23.2
2022-11-28T11:17:55.113Z,23.3
2022-11-28T11:18:57.623Z,23.3
2022-11-28T11:20:00.113Z,23.1
2022-11-28T11:21:02.043Z,23.2
2022-11-28T11:22:04.304Z,23.2
2022-11-28T11:23:06.530Z,23.2
2022-11-28T11:24:08.463Z,23.2
2022-11-28T11:25:10.372Z,23.2
2022-11-28T11:26:12.607Z,23.2
2022-11-28T11:27:14.819Z,23.1
2022-11-28T11:28:16.461Z,23.1
2022-11-28T11:29:18.671Z,23
2022-11-28T11:30:21.168Z,23.2
2022-11-28T11:31:23.595Z,23.2
2022-11-28T11:32:26.820Z,23.2
2022-11-28T11:33:29.022Z,23.1
2022-11-28T11:34:31.223Z,23.3
2022-11-28T11:35:33.421Z,23.3
2022-11-28T11:36:35.903Z,23.3
2022-11-28T11:37:38.148Z,23.1
2022-11-28T11:38:40.381Z,23.2
2022-11-28T11:39:42.486Z,23.4
2022-11-28T11:40:46.001Z,23.2
2022-11-28T11:41:47.649Z,23.1
2022-11-28T11:42:49.869Z,23.4
2022-11-28T11:43:52.360Z,23.2
2022-11-28T11:44:54.848Z,23.1
2022-11-28T11:45:56.839Z,23.3
2022-11-28T11:46:59.155Z,23.3
2022-11-28T11:48:01.692Z,23.5
2022-11-28T11:49:03.895Z,23.2
2022-11-28T11:50:06.105Z,23.1
2022-11-28T11:51:08.584Z,23.1
2022-11-28T11:52:10.793Z,23.3
2022-11-28T11:53:13.321Z,23
2022-11-28T11:54:15.801Z,23
2022-11-28T11:55:18.276Z,23.1
2022-11-28T11:56:19.949Z,23.2
2022-11-28T11:57:36.631Z,23.1
2022-11-28T11:58:27.148Z,23.2
2022-11-28T11:59:29.359Z,23.3
2022-11-28T12:00:31.035Z,23.3
2022-11-28T12:01:33.545Z,23.4
2022-11-28T12:02:36.292Z,23.1
2022-11-28T12:03:39.949Z,23.2
2022-11-28T12:04:47.194Z,23.2
2022-11-28T12:06:12.542Z,23.2
2022-11-28T12:06:53.231Z,23.2
2022-11-28T12:07:55.223Z,23.2
2022-11-28T12:08:58.155Z,23.1
2022-11-28T12:10:04.272Z,23.1
2022-11-28T12:11:05.057Z,23.2
2022-11-28T12:12:06.966Z,23.1
2022-11-28T12:13:09.457Z,23.2
2022-11-28T12:14:11.406Z,23.1
2022-11-28T12:15:13.330Z,23.2
2022-11-28T12:16:15.876Z,23.2
2022-11-28T12:17:47.183Z,23.1
2022-11-28T12:18:23.879Z,23.3
2022-11-28T12:19:26.464Z,23.2
2022-11-28T12:20:28.939Z,23.2
2022-11-28T12:21:31.489Z,23.1
2022-11-28T12:22:33.843Z,23.3
2022-11-28T12:23:36.034Z,23.4
2022-11-28T12:24:37.977Z,23.4
2022-11-28T12:25:40.466Z,23.2
2022-11-28T12:26:42.697Z,23.3
2022-11-28T12:27:44.906Z,23.2
2022-11-28T12:28:47.305Z,23.2
2022-11-28T12:29:49.792Z,23.4
2022-11-28T12:30:52.316Z,23
2022-11-28T12:31:55.092Z,23
2022-11-28T12:32:57.313Z,23.2
2022-11-28T12:33:58.967Z,23.1
2022-11-28T12:35:01.534Z,23.2
2022-11-28T12:36:03.411Z,23.1
2022-11-28T12:37:06.157Z,23.2
2022-11-28T12:38:11.040Z,23.3
2022-11-28T12:39:13.360Z,23.1
2022-11-28T12:40:15.348Z,23.2
2022-11-28T12:41:17.284Z,23.2
2022-11-28T12:42:19.260Z,23.3
2022-11-28T12:43:21.847Z,23.2
2022-11-28T12:44:23.763Z,23.1
2022-11-28T12:45:26.258Z,23.5
2022-11-28T12:46:28.772Z,23.2
2022-11-28T12:47:31.680Z,23.1
2022-11-28T12:48:33.592Z,23.3
2022-11-28T12:49:35.822Z,23.1
2022-11-28T12:50:38.138Z,23.3
2022-11-28T12:51:40.982Z,23.1
2022-11-28T12:52:43.510Z,23.2
2022-11-28T12:53:46.042Z,23.3
2022-11-28T12:54:47.728Z,23.2
2022-11-28T12:55:50.057Z,23.2
2022-11-28T12:56:52.592Z,23.1
2022-11-28T12:57:54.928Z,23.3
2022-11-28T12:58:57.424Z,23.1
2022-11-28T13:00:03.563Z,23.3
2022-11-28T13:01:04.619Z,23.3
2022-11-28T13:03:24.481Z,23.2
2022-11-28T13:04:27.096Z,23.3
2022-11-28T13:05:29.348Z,23.2
2022-11-28T13:06:31.728Z,23.1
2022-11-28T13:07:33.667Z,23
2022-11-28T13:08:36.209Z,23.4
2022-11-28T13:09:42.850Z,23.3
2022-11-28T13:10:46.981Z,23.2
2022-11-28T13:11:48.935Z,23.1
2022-11-28T13:12:51.484Z,23.2
2022-11-28T13:13:53.439Z,23.2
2022-11-28T13:14:55.965Z,23
2022-11-28T13:15:58.552Z,23.2
2022-11-28T13:17:00.844Z,23
2022-11-28T13:18:02.791Z,23.1
2022-11-28T13:19:04.472Z,23.3
2022-11-28T13:20:06.967Z,23.1
2022-11-28T13:21:09.461Z,23.1
2022-11-28T13:22:12.072Z,23
2022-11-28T13:23:13.727Z,23.2
2022-11-28T13:24:16.023Z,23.1
2022-11-28T13:25:18.247Z,23.2
2022-11-28T13:26:20.748Z,23.2
2022-11-28T13:27:23.170Z,23.2
2022-11-28T13:28:25.418Z,23.1
2022-11-28T13:29:27.639Z,23.1
2022-11-28T13:30:30.161Z,23.1
2022-11-28T13:31:32.139Z,23.2
2022-11-28T13:32:34.949Z,23.2
2022-11-28T13:33:37.458Z,23.1
2022-11-28T13:34:39.401Z,23.3
2022-11-28T13:35:41.354Z,23.3
2022-11-28T13:39:11.070Z,23.3
2022-11-28T13:39:58.724Z,23.2
2022-11-28T13:41:01.487Z,23.1
2022-11-28T13:42:21.764Z,23.1
2022-11-28T13:43:09.068Z,23.3
2022-11-28T13:44:11.372Z,23.1
2022-11-28T13:45:13.636Z,23.1
2022-11-28T13:46:16.169Z,23
2022-11-28T13:47:18.960Z,23.3
2022-11-28T13:48:28.222Z,23.3
2022-11-28T13:49:26.434Z,23.1
2022-11-28T13:50:28.931Z,23.1
2022-11-28T13:51:32.418Z,23.2
2022-11-28T13:52:35.568Z,23.3
2022-11-28T13:53:37.788Z,23.2
2022-11-28T13:54:39.703Z,23.2
2022-11-28T13:55:43.063Z,23
2022-11-28T13:56:45.679Z,23
2022-11-28T13:57:47.899Z,23.2